sensor_id;sensor_type;location;lat;lon;timestamp;P1;durP1;ratioP1;P2;durP2;ratioP2
22644;SDS011;11489;50.834;6.752;2023-05-24T00:02:20;12.82;;;3.67;;
22644;SDS011;11489;50.834;6.752;2023-05-24T00:04:47;14.38;;;4.13;;
22644;SDS011;11489;50.834;6.752;2023-05-24T00:07:13;16.67;;;4.45;;
22644;SDS011;11489;50.834;6.752;2023-05-24T00:09:40;16.63;;;5.05;;
22644;SDS011;11489;50.834;6.752;2023-05-24T00:12:06;14.30;;;4.03;;
22644;SDS011;11489;50.834;6.752;2023-05-24T00:14:32;12.90;;;3.80;;
22644;SDS011;11489;50.834;6.752;2023-05-24T00:16:58;8.68;;;3.40;;
22644;SDS011;11489;50.834;6.752;2023-05-24T00:19:24;10.60;;;2.72;;
22644;SDS011;11489;50.834;6.752;2023-05-24T00:21:50;11.30;;;2.90;;
22644;SDS011;11489;50.834;6.752;2023-05-24T00:24:15;10.88;;;2.35;;
22644;SDS011;11489;50.834;6.752;2023-05-24T00:26:41;8.18;;;2.38;;
22644;SDS011;11489;50.834;6.752;2023-05-24T00:29:07;10.55;;;2.80;;
22644;SDS011;11489;50.834;6.752;2023-05-24T00:31:33;9.52;;;2.28;;
22644;SDS011;11489;50.834;6.752;2023-05-24T00:33:59;12.40;;;2.50;;
22644;SDS011;11489;50.834;6.752;2023-05-24T00:36:24;10.60;;;2.33;;
22644;SDS011;11489;50.834;6.752;2023-05-24T00:38:50;9.43;;;2.92;;
22644;SDS011;11489;50.834;6.752;2023-05-24T00:41:17;8.30;;;2.38;;
22644;SDS011;11489;50.834;6.752;2023-05-24T00:43:42;7.75;;;1.98;;
22644;SDS011;11489;50.834;6.752;2023-05-24T00:46:13;8.90;;;2.35;;
22644;SDS011;11489;50.834;6.752;2023-05-24T00:48:44;9.05;;;2.38;;
22644;SDS011;11489;50.834;6.752;2023-05-24T00:51:11;14.77;;;2.53;;
22644;SDS011;11489;50.834;6.752;2023-05-24T00:53:37;6.93;;;2.20;;
22644;SDS011;11489;50.834;6.752;2023-05-24T00:56:05;7.45;;;2.05;;
22644;SDS011;11489;50.834;6.752;2023-05-24T00:58:32;9.25;;;2.50;;
22644;SDS011;11489;50.834;6.752;2023-05-24T01:00:58;10.90;;;2.22;;
22644;SDS011;11489;50.834;6.752;2023-05-24T01:03:25;9.82;;;2.10;;
22644;SDS011;11489;50.834;6.752;2023-05-24T01:05:59;8.48;;;2.22;;
22644;SDS011;11489;50.834;6.752;2023-05-24T01:11:37;7.88;;;2.03;;
22644;SDS011;11489;50.834;6.752;2023-05-24T01:14:28;9.23;;;2.20;;
22644;SDS011;11489;50.834;6.752;2023-05-24T01:17:22;11.32;;;2.70;;
22644;SDS011;11489;50.834;6.752;2023-05-24T01:19:55;8.10;;;1.98;;
22644;SDS011;11489;50.834;6.752;2023-05-24T01:25:09;7.25;;;2.17;;
22644;SDS011;11489;50.834;6.752;2023-05-24T01:27:41;9.85;;;2.45;;
22644;SDS011;11489;50.834;6.752;2023-05-24T01:30:08;11.75;;;2.67;;
22644;SDS011;11489;50.834;6.752;2023-05-24T01:32:34;8.45;;;2.13;;
22644;SDS011;11489;50.834;6.752;2023-05-24T01:35:00;10.82;;;2.40;;
22644;SDS011;11489;50.834;6.752;2023-05-24T01:37:25;7.93;;;1.98;;
22644;SDS011;11489;50.834;6.752;2023-05-24T01:39:51;9.35;;;2.47;;
22644;SDS011;11489;50.834;6.752;2023-05-24T01:42:22;10.90;;;2.05;;
22644;SDS011;11489;50.834;6.752;2023-05-24T01:45:05;10.05;;;2.53;;
22644;SDS011;11489;50.834;6.752;2023-05-24T01:50:37;5.97;;;1.90;;
22644;SDS011;11489;50.834;6.752;2023-05-24T01:53:08;9.20;;;2.10;;
22644;SDS011;11489;50.834;6.752;2023-05-24T01:55:37;11.05;;;2.40;;
22644;SDS011;11489;50.834;6.752;2023-05-24T01:58:04;6.72;;;2.00;;
22644;SDS011;11489;50.834;6.752;2023-05-24T02:00:34;12.18;;;2.45;;
22644;SDS011;11489;50.834;6.752;2023-05-24T02:03:05;12.70;;;2.47;;
22644;SDS011;11489;50.834;6.752;2023-05-24T02:05:31;9.52;;;2.95;;
22644;SDS011;11489;50.834;6.752;2023-05-24T02:07:57;8.95;;;2.70;;
22644;SDS011;11489;50.834;6.752;2023-05-24T02:10:23;8.75;;;2.03;;
22644;SDS011;11489;50.834;6.752;2023-05-24T02:12:49;10.10;;;2.78;;
22644;SDS011;11489;50.834;6.752;2023-05-24T02:15:15;9.80;;;2.85;;
22644;SDS011;11489;50.834;6.752;2023-05-24T02:17:41;11.68;;;2.40;;
22644;SDS011;11489;50.834;6.752;2023-05-24T02:20:07;9.68;;;2.97;;
22644;SDS011;11489;50.834;6.752;2023-05-24T02:22:33;8.82;;;2.35;;
22644;SDS011;11489;50.834;6.752;2023-05-24T02:24:59;12.70;;;2.70;;
22644;SDS011;11489;50.834;6.752;2023-05-24T02:27:25;11.27;;;2.78;;
22644;SDS011;11489;50.834;6.752;2023-05-24T02:29:51;12.48;;;2.67;;
22644;SDS011;11489;50.834;6.752;2023-05-24T02:32:17;8.60;;;2.40;;
22644;SDS011;11489;50.834;6.752;2023-05-24T02:34:42;8.80;;;2.50;;
22644;SDS011;11489;50.834;6.752;2023-05-24T02:37:09;9.03;;;2.73;;
22644;SDS011;11489;50.834;6.752;2023-05-24T02:39:38;8.18;;;2.50;;
22644;SDS011;11489;50.834;6.752;2023-05-24T02:42:07;13.00;;;2.83;;
22644;SDS011;11489;50.834;6.752;2023-05-24T02:44:33;12.10;;;2.78;;
22644;SDS011;11489;50.834;6.752;2023-05-24T02:46:59;9.48;;;2.72;;
22644;SDS011;11489;50.834;6.752;2023-05-24T02:49:25;9.13;;;2.70;;
22644;SDS011;11489;50.834;6.752;2023-05-24T02:51:50;12.93;;;3.17;;
22644;SDS011;11489;50.834;6.752;2023-05-24T02:54:17;8.67;;;2.60;;
22644;SDS011;11489;50.834;6.752;2023-05-24T02:56:42;10.32;;;2.67;;
22644;SDS011;11489;50.834;6.752;2023-05-24T02:59:08;8.75;;;2.72;;
22644;SDS011;11489;50.834;6.752;2023-05-24T03:01:34;7.53;;;2.27;;
22644;SDS011;11489;50.834;6.752;2023-05-24T03:03:59;7.90;;;2.38;;
22644;SDS011;11489;50.834;6.752;2023-05-24T03:06:25;8.48;;;2.45;;
22644;SDS011;11489;50.834;6.752;2023-05-24T03:08:51;11.73;;;3.33;;
22644;SDS011;11489;50.834;6.752;2023-05-24T03:11:16;9.13;;;2.47;;
22644;SDS011;11489;50.834;6.752;2023-05-24T03:13:46;9.87;;;2.80;;
22644;SDS011;11489;50.834;6.752;2023-05-24T03:16:12;6.77;;;2.30;;
22644;SDS011;11489;50.834;6.752;2023-05-24T03:18:38;12.23;;;2.78;;
22644;SDS011;11489;50.834;6.752;2023-05-24T03:21:04;13.90;;;2.40;;
22644;SDS011;11489;50.834;6.752;2023-05-24T03:23:30;8.20;;;2.50;;
22644;SDS011;11489;50.834;6.752;2023-05-24T03:25:55;8.43;;;2.90;;
22644;SDS011;11489;50.834;6.752;2023-05-24T03:28:21;7.90;;;2.50;;
22644;SDS011;11489;50.834;6.752;2023-05-24T03:30:47;6.67;;;2.40;;
22644;SDS011;11489;50.834;6.752;2023-05-24T03:33:13;7.20;;;1.97;;
22644;SDS011;11489;50.834;6.752;2023-05-24T03:35:39;9.67;;;2.40;;
22644;SDS011;11489;50.834;6.752;2023-05-24T03:38:05;11.33;;;2.60;;
22644;SDS011;11489;50.834;6.752;2023-05-24T03:40:30;8.70;;;2.33;;
22644;SDS011;11489;50.834;6.752;2023-05-24T03:42:57;9.53;;;2.30;;
22644;SDS011;11489;50.834;6.752;2023-05-24T03:45:23;9.47;;;2.77;;
22644;SDS011;11489;50.834;6.752;2023-05-24T03:47:49;10.67;;;2.50;;
22644;SDS011;11489;50.834;6.752;2023-05-24T03:50:15;11.87;;;2.57;;
22644;SDS011;11489;50.834;6.752;2023-05-24T03:52:41;9.17;;;2.43;;
22644;SDS011;11489;50.834;6.752;2023-05-24T03:55:07;13.80;;;3.20;;
22644;SDS011;11489;50.834;6.752;2023-05-24T03:57:32;12.07;;;2.88;;
22644;SDS011;11489;50.834;6.752;2023-05-24T03:59:58;10.43;;;2.53;;
22644;SDS011;11489;50.834;6.752;2023-05-24T04:02:25;10.45;;;2.58;;
22644;SDS011;11489;50.834;6.752;2023-05-24T04:04:50;13.88;;;2.70;;
22644;SDS011;11489;50.834;6.752;2023-05-24T04:07:17;9.93;;;2.40;;
22644;SDS011;11489;50.834;6.752;2023-05-24T04:09:43;9.13;;;2.47;;
22644;SDS011;11489;50.834;6.752;2023-05-24T04:12:09;8.48;;;2.50;;
22644;SDS011;11489;50.834;6.752;2023-05-24T04:14:35;10.35;;;2.80;;
22644;SDS011;11489;50.834;6.752;2023-05-24T04:17:01;11.32;;;2.33;;
22644;SDS011;11489;50.834;6.752;2023-05-24T04:19:29;9.70;;;2.63;;
22644;SDS011;11489;50.834;6.752;2023-05-24T04:21:55;9.75;;;2.85;;
22644;SDS011;11489;50.834;6.752;2023-05-24T04:24:21;10.52;;;2.85;;
22644;SDS011;11489;50.834;6.752;2023-05-24T04:26:47;8.90;;;2.65;;
22644;SDS011;11489;50.834;6.752;2023-05-24T04:29:13;8.30;;;2.47;;
22644;SDS011;11489;50.834;6.752;2023-05-24T04:31:42;8.88;;;2.92;;
22644;SDS011;11489;50.834;6.752;2023-05-24T04:34:09;12.55;;;2.92;;
22644;SDS011;11489;50.834;6.752;2023-05-24T04:36:38;7.85;;;2.80;;
22644;SDS011;11489;50.834;6.752;2023-05-24T04:39:04;12.35;;;2.70;;
22644;SDS011;11489;50.834;6.752;2023-05-24T04:41:31;11.38;;;3.10;;
22644;SDS011;11489;50.834;6.752;2023-05-24T04:43:57;11.85;;;2.70;;
22644;SDS011;11489;50.834;6.752;2023-05-24T04:46:25;9.07;;;2.70;;
22644;SDS011;11489;50.834;6.752;2023-05-24T04:48:51;8.10;;;2.78;;
22644;SDS011;11489;50.834;6.752;2023-05-24T04:51:18;12.57;;;3.20;;
22644;SDS011;11489;50.834;6.752;2023-05-24T04:53:45;13.52;;;2.90;;
22644;SDS011;11489;50.834;6.752;2023-05-24T04:56:11;11.30;;;2.70;;
22644;SDS011;11489;50.834;6.752;2023-05-24T04:58:39;12.45;;;2.65;;
22644;SDS011;11489;50.834;6.752;2023-05-24T05:01:05;17.20;;;2.97;;
22644;SDS011;11489;50.834;6.752;2023-05-24T05:03:31;14.02;;;2.90;;
22644;SDS011;11489;50.834;6.752;2023-05-24T05:05:57;12.48;;;3.05;;
22644;SDS011;11489;50.834;6.752;2023-05-24T05:08:23;15.38;;;2.85;;
22644;SDS011;11489;50.834;6.752;2023-05-24T05:10:49;14.60;;;2.95;;
22644;SDS011;11489;50.834;6.752;2023-05-24T05:13:15;11.70;;;2.72;;
22644;SDS011;11489;50.834;6.752;2023-05-24T05:15:40;9.85;;;3.15;;
22644;SDS011;11489;50.834;6.752;2023-05-24T05:18:07;12.73;;;3.33;;
22644;SDS011;11489;50.834;6.752;2023-05-24T05:20:32;16.73;;;3.30;;
22644;SDS011;11489;50.834;6.752;2023-05-24T05:22:58;13.15;;;3.83;;
22644;SDS011;11489;50.834;6.752;2023-05-24T05:25:23;10.60;;;3.22;;
22644;SDS011;11489;50.834;6.752;2023-05-24T05:27:49;9.88;;;3.20;;
22644;SDS011;11489;50.834;6.752;2023-05-24T05:30:15;20.65;;;3.38;;
22644;SDS011;11489;50.834;6.752;2023-05-24T05:32:40;13.13;;;3.30;;
22644;SDS011;11489;50.834;6.752;2023-05-24T05:35:06;15.10;;;3.58;;
22644;SDS011;11489;50.834;6.752;2023-05-24T05:37:32;13.40;;;3.50;;
22644;SDS011;11489;50.834;6.752;2023-05-24T05:39:58;11.07;;;3.10;;
22644;SDS011;11489;50.834;6.752;2023-05-24T05:42:24;14.32;;;3.55;;
22644;SDS011;11489;50.834;6.752;2023-05-24T05:44:49;9.27;;;3.45;;
22644;SDS011;11489;50.834;6.752;2023-05-24T05:47:16;12.05;;;3.80;;
22644;SDS011;11489;50.834;6.752;2023-05-24T05:49:42;14.85;;;3.45;;
22644;SDS011;11489;50.834;6.752;2023-05-24T05:52:07;11.82;;;4.13;;
22644;SDS011;11489;50.834;6.752;2023-05-24T05:54:33;15.82;;;3.55;;
22644;SDS011;11489;50.834;6.752;2023-05-24T05:56:59;16.30;;;4.05;;
22644;SDS011;11489;50.834;6.752;2023-05-24T05:59:25;14.07;;;3.92;;
22644;SDS011;11489;50.834;6.752;2023-05-24T06:01:51;11.55;;;4.03;;
22644;SDS011;11489;50.834;6.752;2023-05-24T06:04:16;13.20;;;4.25;;
22644;SDS011;11489;50.834;6.752;2023-05-24T06:06:42;15.77;;;4.13;;
22644;SDS011;11489;50.834;6.752;2023-05-24T06:09:09;13.63;;;4.05;;
22644;SDS011;11489;50.834;6.752;2023-05-24T06:11:35;17.77;;;4.15;;
22644;SDS011;11489;50.834;6.752;2023-05-24T06:14:01;11.15;;;3.97;;
22644;SDS011;11489;50.834;6.752;2023-05-24T06:16:26;18.15;;;4.55;;
22644;SDS011;11489;50.834;6.752;2023-05-24T06:18:52;14.90;;;4.22;;
22644;SDS011;11489;50.834;6.752;2023-05-24T06:21:19;17.77;;;4.40;;
22644;SDS011;11489;50.834;6.752;2023-05-24T06:23:45;14.10;;;4.38;;
22644;SDS011;11489;50.834;6.752;2023-05-24T06:26:11;16.67;;;4.97;;
22644;SDS011;11489;50.834;6.752;2023-05-24T06:28:37;16.85;;;4.43;;
22644;SDS011;11489;50.834;6.752;2023-05-24T06:31:03;16.65;;;4.72;;
22644;SDS011;11489;50.834;6.752;2023-05-24T06:33:29;23.38;;;5.03;;
22644;SDS011;11489;50.834;6.752;2023-05-24T06:35:59;12.48;;;4.32;;
22644;SDS011;11489;50.834;6.752;2023-05-24T06:38:24;16.13;;;4.45;;
22644;SDS011;11489;50.834;6.752;2023-05-24T06:40:54;16.13;;;4.50;;
22644;SDS011;11489;50.834;6.752;2023-05-24T06:43:22;10.40;;;4.70;;
22644;SDS011;11489;50.834;6.752;2023-05-24T06:45:48;15.80;;;4.93;;
22644;SDS011;11489;50.834;6.752;2023-05-24T06:48:14;16.63;;;4.82;;
22644;SDS011;11489;50.834;6.752;2023-05-24T06:50:39;18.58;;;4.85;;
22644;SDS011;11489;50.834;6.752;2023-05-24T06:53:06;20.25;;;5.15;;
22644;SDS011;11489;50.834;6.752;2023-05-24T06:55:32;19.13;;;4.78;;
22644;SDS011;11489;50.834;6.752;2023-05-24T06:57:57;18.35;;;5.00;;
22644;SDS011;11489;50.834;6.752;2023-05-24T07:00:23;18.00;;;5.15;;
22644;SDS011;11489;50.834;6.752;2023-05-24T07:02:49;17.45;;;4.90;;
22644;SDS011;11489;50.834;6.752;2023-05-24T07:05:14;11.75;;;4.90;;
22644;SDS011;11489;50.834;6.752;2023-05-24T07:07:41;15.55;;;5.10;;
22644;SDS011;11489;50.834;6.752;2023-05-24T07:10:07;17.88;;;4.88;;
22644;SDS011;11489;50.834;6.752;2023-05-24T07:12:34;18.27;;;4.53;;
22644;SDS011;11489;50.834;6.752;2023-05-24T07:15:01;16.40;;;5.00;;
22644;SDS011;11489;50.834;6.752;2023-05-24T07:17:33;18.63;;;5.57;;
22644;SDS011;11489;50.834;6.752;2023-05-24T07:19:59;17.85;;;6.43;;
22644;SDS011;11489;50.834;6.752;2023-05-24T07:22:25;14.93;;;6.00;;
22644;SDS011;11489;50.834;6.752;2023-05-24T07:24:53;15.23;;;6.05;;
22644;SDS011;11489;50.834;6.752;2023-05-24T07:27:19;21.40;;;6.35;;
22644;SDS011;11489;50.834;6.752;2023-05-24T07:29:44;16.15;;;6.35;;
22644;SDS011;11489;50.834;6.752;2023-05-24T07:32:11;19.13;;;8.15;;
22644;SDS011;11489;50.834;6.752;2023-05-24T07:34:37;14.93;;;7.15;;
22644;SDS011;11489;50.834;6.752;2023-05-24T07:37:03;18.88;;;7.10;;
22644;SDS011;11489;50.834;6.752;2023-05-24T07:39:29;19.80;;;7.57;;
22644;SDS011;11489;50.834;6.752;2023-05-24T07:41:55;16.67;;;6.95;;
22644;SDS011;11489;50.834;6.752;2023-05-24T07:44:21;16.63;;;7.43;;
22644;SDS011;11489;50.834;6.752;2023-05-24T07:46:47;16.73;;;7.35;;
22644;SDS011;11489;50.834;6.752;2023-05-24T07:49:13;18.27;;;7.32;;
22644;SDS011;11489;50.834;6.752;2023-05-24T07:51:39;27.65;;;7.88;;
22644;SDS011;11489;50.834;6.752;2023-05-24T07:54:05;19.35;;;7.57;;
22644;SDS011;11489;50.834;6.752;2023-05-24T07:56:30;19.83;;;8.00;;
22644;SDS011;11489;50.834;6.752;2023-05-24T07:58:56;17.10;;;7.25;;
22644;SDS011;11489;50.834;6.752;2023-05-24T08:01:31;19.88;;;7.15;;
22644;SDS011;11489;50.834;6.752;2023-05-24T08:03:58;17.98;;;7.20;;
22644;SDS011;11489;50.834;6.752;2023-05-24T08:06:32;16.02;;;7.38;;
22644;SDS011;11489;50.834;6.752;2023-05-24T08:08:59;14.73;;;6.57;;
22644;SDS011;11489;50.834;6.752;2023-05-24T08:11:25;14.80;;;6.68;;
22644;SDS011;11489;50.834;6.752;2023-05-24T08:13:52;19.73;;;7.38;;
22644;SDS011;11489;50.834;6.752;2023-05-24T08:16:17;13.30;;;6.72;;
22644;SDS011;11489;50.834;6.752;2023-05-24T08:18:43;18.20;;;8.57;;
22644;SDS011;11489;50.834;6.752;2023-05-24T08:21:09;18.63;;;7.25;;
22644;SDS011;11489;50.834;6.752;2023-05-24T08:23:34;17.85;;;6.70;;
22644;SDS011;11489;50.834;6.752;2023-05-24T08:26:00;20.25;;;7.25;;
22644;SDS011;11489;50.834;6.752;2023-05-24T08:28:26;15.52;;;7.65;;
22644;SDS011;11489;50.834;6.752;2023-05-24T08:30:53;15.60;;;6.95;;
22644;SDS011;11489;50.834;6.752;2023-05-24T08:33:19;15.85;;;6.88;;
22644;SDS011;11489;50.834;6.752;2023-05-24T08:35:47;16.27;;;7.43;;
22644;SDS011;11489;50.834;6.752;2023-05-24T08:38:16;14.75;;;7.57;;
22644;SDS011;11489;50.834;6.752;2023-05-24T08:40:41;14.75;;;7.50;;
22644;SDS011;11489;50.834;6.752;2023-05-24T08:43:07;14.30;;;6.40;;
22644;SDS011;11489;50.834;6.752;2023-05-24T08:45:36;15.57;;;6.93;;
22644;SDS011;11489;50.834;6.752;2023-05-24T08:48:06;15.85;;;6.80;;
22644;SDS011;11489;50.834;6.752;2023-05-24T08:50:33;20.10;;;6.85;;
22644;SDS011;11489;50.834;6.752;2023-05-24T08:52:59;16.40;;;6.78;;
22644;SDS011;11489;50.834;6.752;2023-05-24T08:55:29;12.52;;;6.28;;
22644;SDS011;11489;50.834;6.752;2023-05-24T08:57:56;16.50;;;6.63;;
22644;SDS011;11489;50.834;6.752;2023-05-24T09:00:22;12.25;;;5.65;;
22644;SDS011;11489;50.834;6.752;2023-05-24T09:02:51;15.00;;;4.88;;
22644;SDS011;11489;50.834;6.752;2023-05-24T09:05:17;11.57;;;4.57;;
22644;SDS011;11489;50.834;6.752;2023-05-24T09:07:46;10.32;;;4.65;;
22644;SDS011;11489;50.834;6.752;2023-05-24T09:10:13;11.38;;;4.43;;
22644;SDS011;11489;50.834;6.752;2023-05-24T09:12:43;17.83;;;5.07;;
22644;SDS011;11489;50.834;6.752;2023-05-24T09:15:12;14.10;;;4.40;;
22644;SDS011;11489;50.834;6.752;2023-05-24T09:17:38;11.60;;;4.00;;
22644;SDS011;11489;50.834;6.752;2023-05-24T09:20:07;13.60;;;4.20;;
22644;SDS011;11489;50.834;6.752;2023-05-24T09:22:34;12.38;;;4.20;;
22644;SDS011;11489;50.834;6.752;2023-05-24T09:25:02;12.32;;;3.65;;
22644;SDS011;11489;50.834;6.752;2023-05-24T09:27:30;10.80;;;3.13;;
22644;SDS011;11489;50.834;6.752;2023-05-24T09:29:58;8.95;;;3.25;;
22644;SDS011;11489;50.834;6.752;2023-05-24T09:32:24;14.25;;;4.32;;
22644;SDS011;11489;50.834;6.752;2023-05-24T09:34:53;10.32;;;3.97;;
22644;SDS011;11489;50.834;6.752;2023-05-24T09:37:22;12.32;;;3.60;;
22644;SDS011;11489;50.834;6.752;2023-05-24T09:39:51;13.20;;;3.78;;
22644;SDS011;11489;50.834;6.752;2023-05-24T09:42:18;11.60;;;3.72;;
22644;SDS011;11489;50.834;6.752;2023-05-24T09:47:31;11.20;;;3.88;;
22644;SDS011;11489;50.834;6.752;2023-05-24T09:50:00;13.32;;;3.65;;
22644;SDS011;11489;50.834;6.752;2023-05-24T09:52:27;11.60;;;3.28;;
22644;SDS011;11489;50.834;6.752;2023-05-24T09:54:53;9.50;;;3.30;;
22644;SDS011;11489;50.834;6.752;2023-05-24T09:57:18;12.63;;;3.63;;
22644;SDS011;11489;50.834;6.752;2023-05-24T09:59:50;9.77;;;3.30;;
22644;SDS011;11489;50.834;6.752;2023-05-24T10:02:16;12.27;;;3.65;;
22644;SDS011;11489;50.834;6.752;2023-05-24T10:04:45;14.48;;;3.50;;
22644;SDS011;11489;50.834;6.752;2023-05-24T10:07:11;9.68;;;2.95;;
22644;SDS011;11489;50.834;6.752;2023-05-24T10:09:38;10.13;;;3.20;;
22644;SDS011;11489;50.834;6.752;2023-05-24T10:12:05;10.82;;;3.25;;
22644;SDS011;11489;50.834;6.752;2023-05-24T10:14:32;10.80;;;3.33;;
22644;SDS011;11489;50.834;6.752;2023-05-24T10:17:05;10.20;;;3.50;;
22644;SDS011;11489;50.834;6.752;2023-05-24T10:19:32;12.27;;;4.15;;
22644;SDS011;11489;50.834;6.752;2023-05-24T10:21:59;13.18;;;3.92;;
22644;SDS011;11489;50.834;6.752;2023-05-24T10:24:28;13.30;;;3.88;;
22644;SDS011;11489;50.834;6.752;2023-05-24T10:26:59;11.13;;;3.60;;
22644;SDS011;11489;50.834;6.752;2023-05-24T10:32:10;13.25;;;4.20;;
22644;SDS011;11489;50.834;6.752;2023-05-24T10:34:39;12.25;;;3.58;;
22644;SDS011;11489;50.834;6.752;2023-05-24T10:37:06;10.80;;;3.63;;
22644;SDS011;11489;50.834;6.752;2023-05-24T10:39:33;13.63;;;4.25;;
22644;SDS011;11489;50.834;6.752;2023-05-24T10:42:02;14.15;;;4.03;;
22644;SDS011;11489;50.834;6.752;2023-05-24T10:44:30;14.82;;;4.60;;
22644;SDS011;11489;50.834;6.752;2023-05-24T10:47:15;10.02;;;3.67;;
22644;SDS011;11489;50.834;6.752;2023-05-24T10:49:50;13.00;;;3.85;;
22644;SDS011;11489;50.834;6.752;2023-05-24T10:52:21;11.98;;;3.38;;
22644;SDS011;11489;50.834;6.752;2023-05-24T10:55:04;11.60;;;4.07;;
22644;SDS011;11489;50.834;6.752;2023-05-24T10:57:35;15.85;;;4.30;;
22644;SDS011;11489;50.834;6.752;2023-05-24T11:02:48;17.45;;;4.05;;
22644;SDS011;11489;50.834;6.752;2023-05-24T11:05:48;15.88;;;4.15;;
22644;SDS011;11489;50.834;6.752;2023-05-24T11:08:22;14.73;;;4.22;;
22644;SDS011;11489;50.834;6.752;2023-05-24T11:10:50;13.00;;;4.00;;
22644;SDS011;11489;50.834;6.752;2023-05-24T11:13:31;13.25;;;3.80;;
22644;SDS011;11489;50.834;6.752;2023-05-24T11:15:58;9.55;;;3.97;;
22644;SDS011;11489;50.834;6.752;2023-05-24T11:18:24;12.43;;;4.03;;
22644;SDS011;11489;50.834;6.752;2023-05-24T11:20:50;13.32;;;3.92;;
22644;SDS011;11489;50.834;6.752;2023-05-24T11:23:16;13.80;;;4.53;;
22644;SDS011;11489;50.834;6.752;2023-05-24T11:25:44;9.15;;;4.45;;
22644;SDS011;11489;50.834;6.752;2023-05-24T11:28:11;14.30;;;4.10;;
22644;SDS011;11489;50.834;6.752;2023-05-24T11:30:38;9.85;;;3.95;;
22644;SDS011;11489;50.834;6.752;2023-05-24T11:33:20;9.20;;;3.83;;
22644;SDS011;11489;50.834;6.752;2023-05-24T11:35:50;9.98;;;3.80;;
22644;SDS011;11489;50.834;6.752;2023-05-24T11:38:18;13.30;;;4.43;;
22644;SDS011;11489;50.834;6.752;2023-05-24T11:40:46;10.02;;;4.07;;
22644;SDS011;11489;50.834;6.752;2023-05-24T11:43:16;7.95;;;3.45;;
22644;SDS011;11489;50.834;6.752;2023-05-24T11:45:44;10.73;;;3.53;;
22644;SDS011;11489;50.834;6.752;2023-05-24T11:48:12;14.82;;;4.15;;
22644;SDS011;11489;50.834;6.752;2023-05-24T11:50:46;11.50;;;4.40;;
22644;SDS011;11489;50.834;6.752;2023-05-24T11:53:13;10.93;;;3.47;;
22644;SDS011;11489;50.834;6.752;2023-05-24T11:55:40;11.40;;;3.85;;
22644;SDS011;11489;50.834;6.752;2023-05-24T12:00:43;11.80;;;3.90;;
22644;SDS011;11489;50.834;6.752;2023-05-24T12:03:11;14.70;;;3.65;;
22644;SDS011;11489;50.834;6.752;2023-05-24T12:05:37;10.90;;;3.67;;
22644;SDS011;11489;50.834;6.752;2023-05-24T12:08:07;10.02;;;3.20;;
22644;SDS011;11489;50.834;6.752;2023-05-24T12:10:34;10.02;;;3.65;;
22644;SDS011;11489;50.834;6.752;2023-05-24T12:13:01;12.93;;;4.57;;
22644;SDS011;11489;50.834;6.752;2023-05-24T12:15:27;13.35;;;4.65;;
22644;SDS011;11489;50.834;6.752;2023-05-24T12:17:53;13.70;;;4.68;;
22644;SDS011;11489;50.834;6.752;2023-05-24T12:20:19;15.70;;;4.20;;
22644;SDS011;11489;50.834;6.752;2023-05-24T12:22:51;71.38;;;8.70;;
22644;SDS011;11489;50.834;6.752;2023-05-24T12:25:32;16.48;;;4.70;;
22644;SDS011;11489;50.834;6.752;2023-05-24T12:28:01;10.48;;;4.25;;
22644;SDS011;11489;50.834;6.752;2023-05-24T12:30:27;10.60;;;3.90;;
22644;SDS011;11489;50.834;6.752;2023-05-24T12:32:54;9.77;;;3.55;;
22644;SDS011;11489;50.834;6.752;2023-05-24T12:35:20;12.00;;;3.80;;
22644;SDS011;11489;50.834;6.752;2023-05-24T12:37:46;11.88;;;3.88;;
22644;SDS011;11489;50.834;6.752;2023-05-24T12:40:16;13.70;;;3.88;;
22644;SDS011;11489;50.834;6.752;2023-05-24T12:42:54;9.05;;;3.95;;
22644;SDS011;11489;50.834;6.752;2023-05-24T12:45:25;11.73;;;4.80;;
22644;SDS011;11489;50.834;6.752;2023-05-24T12:47:55;9.57;;;4.55;;
22644;SDS011;11489;50.834;6.752;2023-05-24T12:50:23;9.77;;;4.88;;
22644;SDS011;11489;50.834;6.752;2023-05-24T12:52:50;13.75;;;4.90;;
22644;SDS011;11489;50.834;6.752;2023-05-24T12:55:17;16.60;;;5.28;;
22644;SDS011;11489;50.834;6.752;2023-05-24T12:57:44;12.75;;;4.72;;
22644;SDS011;11489;50.834;6.752;2023-05-24T13:00:23;9.38;;;4.28;;
22644;SDS011;11489;50.834;6.752;2023-05-24T13:02:57;11.95;;;4.90;;
22644;SDS011;11489;50.834;6.752;2023-05-24T13:05:23;12.18;;;4.85;;
22644;SDS011;11489;50.834;6.752;2023-05-24T13:07:50;10.45;;;4.60;;
22644;SDS011;11489;50.834;6.752;2023-05-24T13:10:17;14.77;;;4.80;;
22644;SDS011;11489;50.834;6.752;2023-05-24T13:12:46;11.38;;;5.10;;
22644;SDS011;11489;50.834;6.752;2023-05-24T13:15:12;12.60;;;4.90;;
22644;SDS011;11489;50.834;6.752;2023-05-24T13:17:38;12.82;;;4.53;;
22644;SDS011;11489;50.834;6.752;2023-05-24T13:20:05;9.63;;;4.40;;
22644;SDS011;11489;50.834;6.752;2023-05-24T13:22:35;13.73;;;4.20;;
22644;SDS011;11489;50.834;6.752;2023-05-24T13:25:02;10.15;;;3.72;;
22644;SDS011;11489;50.834;6.752;2023-05-24T13:27:29;10.70;;;4.25;;
22644;SDS011;11489;50.834;6.752;2023-05-24T13:29:55;12.88;;;4.80;;
22644;SDS011;11489;50.834;6.752;2023-05-24T13:32:21;13.98;;;5.00;;
22644;SDS011;11489;50.834;6.752;2023-05-24T13:34:47;9.68;;;4.40;;
22644;SDS011;11489;50.834;6.752;2023-05-24T13:37:15;9.95;;;4.93;;
22644;SDS011;11489;50.834;6.752;2023-05-24T13:39:44;11.32;;;4.80;;
22644;SDS011;11489;50.834;6.752;2023-05-24T13:42:10;12.32;;;5.53;;
22644;SDS011;11489;50.834;6.752;2023-05-24T13:44:35;12.45;;;4.90;;
22644;SDS011;11489;50.834;6.752;2023-05-24T13:47:02;10.73;;;4.65;;
22644;SDS011;11489;50.834;6.752;2023-05-24T13:49:28;13.77;;;6.18;;
22644;SDS011;11489;50.834;6.752;2023-05-24T13:51:54;10.45;;;5.93;;
22644;SDS011;11489;50.834;6.752;2023-05-24T13:54:22;11.20;;;6.18;;
22644;SDS011;11489;50.834;6.752;2023-05-24T13:56:54;13.40;;;6.47;;
22644;SDS011;11489;50.834;6.752;2023-05-24T13:59:21;13.10;;;7.47;;
22644;SDS011;11489;50.834;6.752;2023-05-24T14:01:47;16.27;;;7.50;;
22644;SDS011;11489;50.834;6.752;2023-05-24T14:04:13;15.40;;;6.85;;
22644;SDS011;11489;50.834;6.752;2023-05-24T14:06:40;12.85;;;6.95;;
22644;SDS011;11489;50.834;6.752;2023-05-24T14:09:06;14.73;;;6.80;;
22644;SDS011;11489;50.834;6.752;2023-05-24T14:11:35;17.38;;;7.95;;
22644;SDS011;11489;50.834;6.752;2023-05-24T14:14:01;14.57;;;7.35;;
22644;SDS011;11489;50.834;6.752;2023-05-24T14:16:27;16.60;;;8.52;;
22644;SDS011;11489;50.834;6.752;2023-05-24T14:18:53;13.40;;;6.97;;
22644;SDS011;11489;50.834;6.752;2023-05-24T14:21:19;13.52;;;6.82;;
22644;SDS011;11489;50.834;6.752;2023-05-24T14:23:49;17.60;;;7.30;;
22644;SDS011;11489;50.834;6.752;2023-05-24T14:26:15;13.50;;;6.75;;
22644;SDS011;11489;50.834;6.752;2023-05-24T14:28:41;13.13;;;6.90;;
22644;SDS011;11489;50.834;6.752;2023-05-24T14:31:07;14.15;;;7.55;;
22644;SDS011;11489;50.834;6.752;2023-05-24T14:33:32;11.88;;;7.28;;
22644;SDS011;11489;50.834;6.752;2023-05-24T14:35:58;15.55;;;8.45;;
22644;SDS011;11489;50.834;6.752;2023-05-24T14:38:24;11.90;;;8.18;;
22644;SDS011;11489;50.834;6.752;2023-05-24T14:40:50;17.60;;;8.60;;
22644;SDS011;11489;50.834;6.752;2023-05-24T14:43:16;18.88;;;8.75;;
22644;SDS011;11489;50.834;6.752;2023-05-24T14:45:41;18.10;;;9.45;;
22644;SDS011;11489;50.834;6.752;2023-05-24T14:48:07;14.48;;;8.35;;
22644;SDS011;11489;50.834;6.752;2023-05-24T14:50:35;15.23;;;8.35;;
22644;SDS011;11489;50.834;6.752;2023-05-24T14:53:02;13.60;;;6.88;;
22644;SDS011;11489;50.834;6.752;2023-05-24T14:55:36;17.15;;;8.00;;
22644;SDS011;11489;50.834;6.752;2023-05-24T14:58:02;13.60;;;7.80;;
22644;SDS011;11489;50.834;6.752;2023-05-24T15:00:28;10.85;;;6.78;;